Time;durP1;ratioP1;P1;durP2;ratioP2;P2;SDS_P1;SDS_P2;PMS_P1;PMS_P2;Temp;Humidity;BMP_temperature;BMP_pressure;BME280_temperature;BME280_humidity;BME280_pressure;Samples;Min_cycle;Max_cycle;Signal;HPM_P1;HPM_P2
2022/03/21 00:00:47;;;;;;;18.47;12.57;;;12.40;72.70;;;;;;5066979;28;20481;-85
2022/03/21 00:03:19;;;;;;;14.13;12.27;;;12.20;74.20;;;;;;5067342;28;20530;-84
2022/03/21 00:05:47;;;;;;;17.20;13.10;;;12.10;75.90;;;;;;5069742;28;20463;-85
2022/03/21 00:08:22;;;;;;;16.80;13.43;;;12.50;74.20;;;;;;5068520;28;20486;-84
2022/03/21 00:10:52;;;;;;;16.47;12.67;;;12.50;73.20;;;;;;5064669;28;20455;-85
2022/03/21 00:13:19;;;;;;;16.33;13.17;;;12.30;73.80;;;;;;5060226;28;20516;-85
2022/03/21 00:15:48;;;;;;;14.03;11.47;;;12.10;75.70;;;;;;5070288;28;20501;-83
2022/03/21 00:18:19;;;;;;;14.63;11.40;;;12.00;75.70;;;;;;5069771;28;20460;-84
2022/03/21 00:20:56;;;;;;;13.40;11.87;;;12.00;75.60;;;;;;5071584;28;20464;-83
2022/03/21 00:23:26;;;;;;;17.97;11.00;;;12.10;74.30;;;;;;5071268;28;20501;-84
2022/03/21 00:25:54;;;;;;;12.37;9.90;;;12.00;74.10;;;;;;5067923;28;20529;-83
2022/03/21 00:28:21;;;;;;;14.20;11.10;;;12.40;72.80;;;;;;5068919;28;20486;-86
2022/03/21 00:30:52;;;;;;;16.73;13.00;;;12.60;72.30;;;;;;5070002;28;20473;-83
2022/03/21 00:33:23;;;;;;;16.37;12.37;;;12.60;75.00;;;;;;5068662;28;20793;-86
2022/03/21 00:35:53;;;;;;;19.50;13.03;;;12.40;78.00;;;;;;5075107;28;20513;-83
2022/03/21 00:38:23;;;;;;;15.23;13.27;;;12.30;78.50;;;;;;5078373;28;20446;-84
2022/03/21 00:40:55;;;;;;;18.40;14.10;;;12.00;80.00;;;;;;5073155;28;20450;-84
2022/03/21 00:43:27;;;;;;;15.77;12.20;;;11.80;80.90;;;;;;5074030;28;20459;-84
2022/03/21 00:45:57;;;;;;;15.67;13.10;;;11.70;82.60;;;;;;5075287;28;20448;-83
2022/03/21 00:48:27;;;;;;;14.33;12.77;;;11.80;81.90;;;;;;5075003;28;20462;-82
2022/03/21 00:50:58;;;;;;;18.27;14.20;;;11.70;82.20;;;;;;5076749;28;20463;-84
2022/03/21 00:53:25;;;;;;;16.83;12.43;;;11.60;83.40;;;;;;5077391;28;20524;-84
2022/03/21 00:55:55;;;;;;;19.80;13.13;;;11.60;84.60;;;;;;5077691;28;20481;-86
2022/03/21 00:58:25;;;;;;;15.20;12.63;;;11.60;85.00;;;;;;5092292;28;20453;-85
2022/03/21 01:00:52;;;;;;;18.00;13.30;;;11.60;85.30;;;;;;5092605;28;20451;-84
2022/03/21 01:03:25;;;;;;;15.50;12.33;;;11.50;85.90;;;;;;5091254;28;20459;-83
2022/03/21 01:05:52;;;;;;;19.50;13.60;;;11.50;87.60;;;;;;5092721;28;20440;-84
2022/03/21 01:08:23;;;;;;;24.90;14.60;;;11.70;87.40;;;;;;5092668;28;20482;-85
2022/03/21 01:10:53;;;;;;;18.00;11.37;;;12.00;85.10;;;;;;5089432;28;20471;-86
2022/03/21 01:13:23;;;;;;;17.07;12.83;;;12.00;83.60;;;;;;5079825;28;20471;-83
2022/03/21 01:15:52;;;;;;;15.67;11.70;;;11.90;83.70;;;;;;5064468;28;20475;-83
2022/03/21 01:18:22;;;;;;;15.33;12.20;;;11.80;84.40;;;;;;5070005;28;20815;-84
2022/03/21 01:20:50;;;;;;;21.30;12.90;;;12.10;84.10;;;;;;5071116;28;20450;-82
2022/03/21 01:23:20;;;;;;;16.97;12.70;;;12.20;82.20;;;;;;5070819;28;20452;-84
2022/03/21 01:25:48;;;;;;;17.17;12.07;;;11.90;82.20;;;;;;5071625;28;20457;-82
2022/03/21 01:28:16;;;;;;;13.30;11.40;;;11.80;83.90;;;;;;5071243;28;20467;-86
2022/03/21 01:30:46;;;;;;;15.63;12.63;;;11.90;84.70;;;;;;5069292;28;20455;-83
2022/03/21 01:33:19;;;;;;;13.50;11.73;;;11.80;84.70;;;;;;5080164;28;20458;-84
2022/03/21 01:35:52;;;;;;;17.00;13.03;;;11.80;84.80;;;;;;5074893;28;20942;-83
2022/03/21 01:38:22;;;;;;;14.57;11.60;;;11.70;85.60;;;;;;5067885;28;20528;-81
2022/03/21 01:40:50;;;;;;;17.63;12.20;;;11.90;87.30;;;;;;5068662;28;20462;-84
2022/03/21 01:43:20;;;;;;;17.43;13.30;;;12.20;85.70;;;;;;5066530;28;20461;-84
2022/03/21 01:45:49;;;;;;;17.30;12.77;;;12.40;84.80;;;;;;5070176;28;20459;-85
2022/03/21 01:48:16;;;;;;;15.47;12.73;;;12.40;86.00;;;;;;5069987;28;20459;-83
2022/03/21 01:50:44;;;;;;;18.50;13.53;;;12.00;86.40;;;;;;5065826;28;20464;-84
2022/03/21 01:56:00;;;;;;;19.60;12.80;;;11.80;90.00;;;;;;5070665;28;20471;-83
2022/03/21 01:58:30;;;;;;;16.40;13.30;;;11.60;90.50;;;;;;5067946;28;20455;-83
2022/03/21 02:01:00;;;;;;;18.23;12.80;;;11.90;90.60;;;;;;5066557;28;20480;-86
2022/03/21 02:03:31;;;;;;;25.80;13.77;;;11.90;88.70;;;;;;5072139;28;20505;-84
2022/03/21 02:05:59;;;;;;;20.03;12.60;;;11.60;89.00;;;;;;5081825;28;20463;-84
2022/03/21 02:08:26;;;;;;;19.30;14.20;;;11.50;89.60;;;;;;5076193;28;20472;-85
2022/03/21 02:10:53;;;;;;;18.77;12.73;;;11.50;90.00;;;;;;5069576;28;20459;-83
2022/03/21 02:13:28;;;;;;;15.73;13.20;;;11.70;90.80;;;;;;5071996;28;20463;-84
2022/03/21 02:15:57;;;;;;;18.30;12.70;;;12.00;89.90;;;;;;5071626;28;20491;-85
2022/03/21 02:18:26;;;;;;;17.63;14.40;;;12.10;89.00;;;;;;5071955;28;20462;-85
2022/03/21 02:21:01;;;;;;;15.53;12.80;;;12.30;89.60;;;;;;5068670;28;20455;-84
2022/03/21 02:23:48;;;;;;;15.27;12.97;;;12.10;90.30;;;;;;5068361;28;20509;-84
2022/03/21 02:26:17;;;;;;;15.47;13.40;;;11.80;91.00;;;;;;5071045;28;21820;-86
2022/03/21 02:28:48;;;;;;;17.30;14.00;;;11.70;91.90;;;;;;5070202;28;20459;-84
2022/03/21 02:31:17;;;;;;;15.10;12.57;;;11.70;92.20;;;;;;5067790;28;20471;-85
2022/03/21 02:33:48;;;;;;;16.73;12.43;;;11.60;92.40;;;;;;5070570;28;20528;-83
2022/03/21 02:36:26;;;;;;;17.27;13.53;;;11.40;93.00;;;;;;5069629;28;20479;-85
2022/03/21 02:38:58;;;;;;;16.10;13.90;;;11.60;93.70;;;;;;5070122;28;20490;-86
2022/03/21 02:41:36;;;;;;;24.53;15.20;;;11.80;93.60;;;;;;5069689;28;20466;-85
2022/03/21 02:44:05;;;;;;;16.43;14.23;;;11.70;93.20;;;;;;5071308;28;20486;-84
2022/03/21 02:46:39;;;;;;;17.47;13.83;;;11.60;93.50;;;;;;5068040;28;20474;-84
2022/03/21 02:49:07;;;;;;;19.03;14.40;;;11.80;94.00;;;;;;5070057;28;20466;-84
2022/03/21 02:51:39;;;;;;;16.73;14.30;;;11.70;94.00;;;;;;5069242;28;20882;-84
2022/03/21 02:54:19;;;;;;;16.40;13.80;;;11.70;94.70;;;;;;5070296;28;20471;-84
2022/03/21 02:56:48;;;;;;;21.73;14.20;;;11.60;95.10;;;;;;5068050;28;20508;-86
2022/03/21 02:59:30;;;;;;;19.83;13.90;;;11.50;94.90;;;;;;5068005;28;20456;-82
2022/03/21 03:02:07;;;;;;;17.73;13.93;;;11.40;95.40;;;;;;5074719;28;20495;-85
2022/03/21 03:04:37;;;;;;;18.67;14.27;;;11.30;95.40;;;;;;5074562;28;20470;-85
2022/03/21 03:07:06;;;;;;;20.13;14.10;;;11.30;95.20;;;;;;5072504;28;20459;-86
2022/03/21 03:09:37;;;;;;;22.10;15.40;;;11.40;95.20;;;;;;5072428;28;20447;-83
2022/03/21 03:12:04;;;;;;;18.97;13.97;;;11.30;95.10;;;;;;5071829;28;21164;-85
2022/03/21 03:14:38;;;;;;;19.60;14.00;;;11.20;94.80;;;;;;5068459;28;20483;-83
2022/03/21 03:17:10;;;;;;;19.03;13.27;;;11.30;94.00;;;;;;5060683;28;20472;-84
2022/03/21 03:19:40;;;;;;;21.23;14.90;;;11.30;93.70;;;;;;5071021;28;20464;-85
2022/03/21 03:22:08;;;;;;;19.47;13.93;;;11.20;94.20;;;;;;5069585;28;20463;-86
2022/03/21 03:24:40;;;;;;;18.53;13.60;;;11.10;94.40;;;;;;5071009;28;20507;-84
2022/03/21 03:27:11;;;;;;;17.40;13.90;;;11.20;94.90;;;;;;5071649;28;20451;-86
2022/03/21 03:29:38;;;;;;;19.43;14.10;;;11.00;94.50;;;;;;5070093;28;20463;-85
2022/03/21 03:32:08;;;;;;;19.67;13.10;;;11.00;94.70;;;;;;5074239;28;20474;-83
2022/03/21 03:35:24;;;;;;;18.80;14.43;;;11.00;94.50;;;;;;5091731;28;20494;-82
2022/03/21 03:38:00;;;;;;;17.87;13.87;;;11.30;93.00;;;;;;5089964;28;20438;-84
2022/03/21 03:40:32;;;;;;;21.77;15.10;;;11.20;92.70;;;;;;5088360;28;20534;-83
2022/03/21 03:43:02;;;;;;;20.77;14.73;;;11.00;93.00;;;;;;5071456;28;20467;-85
2022/03/21 03:45:38;;;;;;;22.50;14.97;;;11.00;93.50;;;;;;5071305;28;20960;-82
2022/03/21 03:48:09;;;;;;;18.17;13.00;;;11.00;93.70;;;;;;5070278;28;20851;-85
2022/03/21 03:50:38;;;;;;;21.37;14.00;;;10.90;93.80;;;;;;5069540;28;21024;-84
2022/03/21 03:53:10;;;;;;;19.70;15.17;;;10.80;94.10;;;;;;5067467;28;20473;-83
2022/03/21 03:55:37;;;;;;;17.67;14.27;;;10.90;94.50;;;;;;5070083;28;20513;-85
2022/03/21 03:58:07;;;;;;;18.27;14.03;;;11.00;94.50;;;;;;5072200;28;20550;-83
2022/03/21 04:00:38;;;;;;;19.60;15.17;;;11.20;93.90;;;;;;5070688;28;20934;-83
2022/03/21 04:05:56;;;;;;;17.13;14.10;;;11.40;92.80;;;;;;5074655;28;20463;-84
2022/03/21 04:08:34;;;;;;;21.30;15.17;;;11.20;93.00;;;;;;5071135;28;20466;-84
2022/03/21 04:11:04;;;;;;;19.23;14.93;;;11.40;93.20;;;;;;5070953;28;20439;-83
2022/03/21 04:13:33;;;;;;;21.93;16.70;;;11.40;93.00;;;;;;5067237;28;21109;-86
2022/03/21 04:16:03;;;;;;;21.33;15.33;;;11.30;93.20;;;;;;5071053;28;20479;-84
2022/03/21 04:18:33;;;;;;;17.40;13.97;;;11.10;93.40;;;;;;5072970;28;20486;-84
2022/03/21 04:21:27;;;;;;;16.70;13.93;;;10.90;93.90;;;;;;5070015;28;20540;-82
2022/03/21 04:23:57;;;;;;;21.53;16.03;;;10.70;94.30;;;;;;5071097;28;20495;-83
2022/03/21 04:26:25;;;;;;;20.53;15.77;;;10.70;94.70;;;;;;5073955;28;20460;-83
2022/03/21 04:28:56;;;;;;;19.70;15.37;;;10.70;94.80;;;;;;5071614;28;20470;-85
2022/03/21 04:31:27;;;;;;;20.43;15.47;;;10.90;94.90;;;;;;5071219;28;20455;-84
2022/03/21 04:33:59;;;;;;;22.60;15.40;;;11.00;94.80;;;;;;5070549;28;20495;-86
2022/03/21 04:36:35;;;;;;;20.47;14.73;;;11.20;94.40;;;;;;5075542;28;20472;-85
2022/03/21 04:39:11;;;;;;;23.23;15.57;;;11.10;93.70;;;;;;5072456;28;20515;-87
2022/03/21 04:41:41;;;;;;;22.80;16.20;;;10.90;93.80;;;;;;5075578;28;20459;-83
2022/03/21 04:44:12;;;;;;;22.67;16.27;;;10.80;93.80;;;;;;5076132;28;20479;-82
2022/03/21 04:46:51;;;;;;;20.90;16.30;;;10.60;94.20;;;;;;5081530;28;20495;-84
2022/03/21 04:49:21;;;;;;;19.47;15.30;;;10.50;94.70;;;;;;5070049;28;20464;-83
2022/03/21 04:52:01;;;;;;;20.20;15.47;;;10.50;94.80;;;;;;5071107;28;20466;-84
2022/03/21 04:54:32;;;;;;;19.57;16.47;;;10.40;94.70;;;;;;5072082;28;20499;-83
2022/03/21 04:57:10;;;;;;;21.53;16.50;;;10.30;95.10;;;;;;5071682;28;20544;-84
2022/03/21 04:59:51;;;;;;;20.53;16.73;;;10.30;95.50;;;;;;5071705;28;21002;-84
2022/03/21 05:02:22;;;;;;;19.10;16.67;;;10.50;95.10;;;;;;5072068;28;20487;-85
2022/03/21 05:04:53;;;;;;;18.20;14.80;;;10.70;94.50;;;;;;5070969;28;20507;-86
2022/03/21 05:07:26;;;;;;;19.77;16.10;;;10.70;94.10;;;;;;5073750;28;20522;-84
2022/03/21 05:09:58;;;;;;;19.47;16.23;;;10.60;93.60;;;;;;5072166;28;20806;-83
2022/03/21 05:12:27;;;;;;;20.60;16.33;;;10.40;93.60;;;;;;5071567;28;20460;-84
2022/03/21 05:14:59;;;;;;;19.80;15.50;;;10.30;93.80;;;;;;5068508;28;20470;-83
2022/03/21 05:17:30;;;;;;;18.03;15.03;;;10.10;94.00;;;;;;5068712;28;21046;-84
2022/03/21 05:20:15;;;;;;;19.40;16.60;;;9.90;94.70;;;;;;5071138;28;20464;-84
2022/03/21 05:31:16;;;;;;;23.90;16.03;;;10.30;93.20;;;;;;5074956;28;20456;-83
2022/03/21 05:36:36;;;;;;;20.20;16.07;;;10.20;93.20;;;;;;5074672;28;20483;-82
2022/03/21 05:39:06;;;;;;;20.53;15.90;;;10.10;93.60;;;;;;5073844;28;20450;-83
2022/03/21 05:41:39;;;;;;;18.97;16.37;;;10.20;94.10;;;;;;5073621;28;20899;-83
2022/03/21 05:44:11;;;;;;;18.50;14.97;;;10.10;94.60;;;;;;5072821;28;20575;-84
2022/03/21 05:46:47;;;;;;;18.20;16.10;;;10.10;95.20;;;;;;5078818;28;20447;-83
2022/03/21 05:49:15;;;;;;;27.23;16.40;;;10.00;95.50;;;;;;5073485;28;20471;-83
2022/03/21 05:51:43;;;;;;;23.40;16.00;;;10.10;95.60;;;;;;5075343;28;20523;-84
2022/03/21 05:54:14;;;;;;;20.90;15.97;;;10.30;95.00;;;;;;5074865;28;20505;-84
2022/03/21 05:56:49;;;;;;;17.37;15.57;;;10.40;94.70;;;;;;5073708;28;20566;-85
2022/03/21 06:02:16;;;;;;;20.43;15.00;;;10.40;92.70;;;;;;5076140;28;20566;-85
2022/03/21 06:04:49;;;;;;;18.60;16.23;;;10.20;92.70;;;;;;5078771;28;20475;-83
2022/03/21 06:07:20;;;;;;;21.03;16.23;;;10.10;93.20;;;;;;5088441;28;20519;-85
2022/03/21 06:09:51;;;;;;;19.60;15.10;;;10.40;93.20;;;;;;5089784;28;20452;-82
2022/03/21 06:12:25;;;;;;;20.07;15.60;;;10.50;92.50;;;;;;5091809;28;20452;-85
2022/03/21 06:15:00;;;;;;;21.63;16.13;;;10.60;92.10;;;;;;5073800;28;20486;-82
2022/03/21 06:17:38;;;;;;;20.57;16.30;;;10.70;91.80;;;;;;5078043;28;20501;-85
2022/03/21 06:20:14;;;;;;;18.23;15.10;;;11.10;91.30;;;;;;5072911;28;20450;-86
2022/03/21 06:22:48;;;;;;;18.57;14.83;;;11.40;90.00;;;;;;5071846;28;20566;-82
2022/03/21 06:25:19;;;;;;;18.53;15.40;;;11.20;89.00;;;;;;5070420;28;20501;-83
2022/03/21 06:27:56;;;;;;;27.20;17.30;;;10.90;89.10;;;;;;5071683;28;20486;-83
2022/03/21 06:30:24;;;;;;;18.33;15.00;;;10.80;90.20;;;;;;5074301;28;20455;-84
2022/03/21 06:32:55;;;;;;;24.77;16.27;;;10.80;90.90;;;;;;5072386;28;20440;-85
2022/03/21 06:35:28;;;;;;;21.77;16.20;;;10.90;91.00;;;;;;5073635;28;20482;-83
2022/03/21 06:38:00;;;;;;;28.60;17.07;;;10.90;90.80;;;;;;5071695;28;20472;-86
2022/03/21 06:40:30;;;;;;;20.50;15.33;;;10.80;90.00;;;;;;5075238;28;20455;-85
2022/03/21 06:43:02;;;;;;;22.47;15.80;;;10.70;89.40;;;;;;5076016;28;21220;-84
2022/03/21 06:45:41;;;;;;;22.20;15.57;;;10.70;88.10;;;;;;5074191;28;21087;-85
2022/03/21 06:48:20;;;;;;;20.10;16.87;;;10.80;85.10;;;;;;5070891;28;20443;-84
2022/03/21 06:50:56;;;;;;;20.30;17.67;;;11.00;85.40;;;;;;5069825;28;20455;-85
2022/03/21 06:53:23;;;;;;;21.37;15.63;;;11.10;83.30;;;;;;5071978;28;20477;-84
2022/03/21 06:55:53;;;;;;;16.70;14.43;;;11.20;83.10;;;;;;5070512;28;20456;-83
2022/03/21 06:58:24;;;;;;;20.70;16.33;;;11.20;82.70;;;;;;5075126;28;20455;-85
2022/03/21 07:00:52;;;;;;;18.37;14.37;;;11.00;83.20;;;;;;5074446;28;20486;-83
2022/03/21 07:03:25;;;;;;;16.23;13.40;;;11.00;82.10;;;;;;5075562;28;20473;-84
2022/03/21 07:05:59;;;;;;;24.90;14.50;;;10.90;81.50;;;;;;5074900;28;20475;-85
2022/03/21 07:08:34;;;;;;;15.80;13.13;;;10.80;81.20;;;;;;5074385;28;20953;-84
2022/03/21 07:11:12;;;;;;;17.00;13.47;;;10.90;80.90;;;;;;5071279;28;20483;-84
2022/03/21 07:13:47;;;;;;;17.20;13.00;;;11.00;80.50;;;;;;5073391;28;20537;-82
2022/03/21 07:16:20;;;;;;;19.63;14.07;;;11.00;80.40;;;;;;5073959;28;20487;-82
2022/03/21 07:18:52;;;;;;;16.67;14.37;;;11.10;80.30;;;;;;5076839;28;20560;-85
2022/03/21 07:21:28;;;;;;;16.17;13.70;;;11.10;80.40;;;;;;5076540;28;20453;-84
2022/03/21 07:23:57;;;;;;;19.83;14.80;;;11.30;81.10;;;;;;5073823;28;20539;-85
2022/03/21 07:26:27;;;;;;;19.57;14.60;;;13.00;78.80;;;;;;5072825;28;20455;-82
2022/03/21 07:28:58;;;;;;;15.07;13.37;;;14.30;71.20;;;;;;5071620;28;20464;-86
2022/03/21 07:31:34;;;;;;;16.50;13.27;;;14.90;67.80;;;;;;5070696;28;20529;-85
2022/03/21 07:34:26;;;;;;;19.23;14.93;;;15.00;63.40;;;;;;5074114;28;21172;-88
2022/03/21 07:37:02;;;;;;;15.00;12.70;;;15.30;61.90;;;;;;5073885;28;20491;-84
2022/03/21 07:39:36;;;;;;;17.73;14.10;;;17.00;56.80;;;;;;5071659;28;20965;-84
2022/03/21 07:42:04;;;;;;;16.50;14.03;;;17.60;54.30;;;;;;5074178;28;20537;-86
2022/03/21 07:47:41;;;;;;;14.13;12.63;;;17.20;52.60;;;;;;5077038;28;20459;-85
2022/03/21 07:50:14;;;;;;;17.27;11.90;;;17.60;50.40;;;;;;5079232;28;20466;-84
2022/03/21 07:52:47;;;;;;;16.97;13.30;;;17.70;50.00;;;;;;5076209;28;20458;-88
2022/03/21 07:55:26;;;;;;;16.03;12.90;;;17.50;49.70;;;;;;5110335;28;20487;-84
2022/03/21 07:58:28;;;;;;;14.87;13.10;;;17.50;49.90;;;;;;5082264;28;20464;-82
2022/03/21 08:01:12;;;;;;;16.90;13.47;;;17.70;49.50;;;;;;5083561;28;21339;-86
2022/03/21 08:04:04;;;;;;;16.00;13.57;;;18.30;48.60;;;;;;5090117;28;20451;-87
2022/03/21 08:06:59;;;;;;;14.83;13.17;;;18.30;48.00;;;;;;5076422;28;20440;-86
2022/03/21 08:09:35;;;;;;;15.57;13.33;;;18.90;47.10;;;;;;5092698;28;20423;-84
2022/03/21 08:12:18;;;;;;;15.13;12.67;;;18.50;46.20;;;;;;5095601;28;20516;-85
2022/03/21 08:15:00;;;;;;;17.17;13.60;;;16.80;47.90;;;;;;5092262;28;20495;-84
2022/03/21 08:17:52;;;;;;;15.20;13.13;;;15.80;49.70;;;;;;5092061;28;20471;-85
2022/03/21 08:20:33;;;;;;;15.50;13.03;;;14.70;51.50;;;;;;5093111;28;20454;-85
2022/03/21 08:23:10;;;;;;;15.23;13.30;;;14.60;52.40;;;;;;5091291;28;20477;-84
2022/03/21 08:25:57;;;;;;;16.93;14.33;;;14.70;52.30;;;;;;5082106;28;20440;-83
2022/03/21 08:28:34;;;;;;;18.60;13.93;;;14.50;53.00;;;;;;5081416;28;20561;-83
2022/03/21 08:31:13;;;;;;;16.60;13.70;;;14.20;53.70;;;;;;5078351;28;20546;-84
2022/03/21 08:33:42;;;;;;;15.33;13.70;;;13.70;54.20;;;;;;5061271;28;20463;-85
2022/03/21 08:36:43;;;;;;;15.80;14.17;;;14.20;53.30;;;;;;5081815;28;20834;-86
2022/03/21 08:39:33;;;;;;;17.80;13.70;;;14.10;53.60;;;;;;5082473;28;20502;-84
2022/03/21 08:42:20;;;;;;;15.70;13.30;;;14.20;52.90;;;;;;5084947;28;20447;-84
2022/03/21 08:51:00;;;;;;;15.93;13.40;;;14.20;52.60;;;;;;5045334;28;20480;-84
2022/03/21 08:53:48;;;;;;;17.50;14.67;;;14.00;52.60;;;;;;5040263;28;20478;-86
2022/03/21 08:56:25;;;;;;;16.47;13.47;;;14.10;52.80;;;;;;5023190;28;20453;-85
2022/03/21 08:59:04;;;;;;;14.67;12.20;;;13.90;53.00;;;;;;5010064;28;20458;-83
2022/03/21 09:01:49;;;;;;;15.87;13.97;;;13.80;53.80;;;;;;5029007;28;20485;-83
2022/03/21 09:04:27;;;;;;;18.83;11.83;;;14.10;53.30;;;;;;5026632;28;20496;-86
2022/03/21 09:07:12;;;;;;;15.60;13.80;;;14.30;53.00;;;;;;5024401;28;20450;-85
2022/03/21 09:09:51;;;;;;;19.23;14.10;;;14.20;52.90;;;;;;5023885;28;20454;-85
2022/03/21 09:12:59;;;;;;;15.83;14.17;;;14.10;53.70;;;;;;5025353;28;20480;-85
2022/03/21 09:16:15;;;;;;;14.30;12.50;;;14.30;53.10;;;;;;5027904;28;20437;-85
2022/03/21 09:19:27;;;;;;;19.07;14.37;;;14.50;53.10;;;;;;5020209;28;20477;-85
2022/03/21 09:27:00;;;;;;;;;;;;;;;;;;;;;
2022/03/21 09:30:09;;;;;;;18.20;13.47;;;14.20;53.40;;;;;;5023093;28;20460;-88
2022/03/21 09:32:53;;;;;;;17.50;12.87;;;14.20;54.10;;;;;;5017454;28;20851;-85
2022/03/21 09:35:21;;;;;;;15.87;12.93;;;14.60;53.40;;;;;;5016452;28;21066;-86
2022/03/21 09:37:54;;;;;;;17.30;14.80;;;14.60;53.20;;;;;;5017696;28;20485;-85
2022/03/21 09:40:31;;;;;;;18.60;14.30;;;14.50;53.30;;;;;;5000298;28;20577;-85
2022/03/21 09:43:02;;;;;;;16.30;13.67;;;14.60;53.60;;;;;;5001800;28;20469;-84
2022/03/21 09:45:36;;;;;;;16.77;13.13;;;14.70;53.30;;;;;;5018685;28;20474;-84
2022/03/21 09:48:17;;;;;;;18.27;14.47;;;14.90;53.30;;;;;;5017776;28;20457;-85
2022/03/21 09:50:51;;;;;;;16.07;13.03;;;15.10;53.00;;;;;;5019621;28;20472;-85
2022/03/21 09:53:21;;;;;;;15.80;12.80;;;15.00;53.20;;;;;;5027501;28;20438;-83
2022/03/21 09:55:52;;;;;;;16.30;13.33;;;15.10;53.50;;;;;;5026118;28;20590;-84
2022/03/21 09:58:20;;;;;;;14.97;13.37;;;15.50;53.20;;;;;;5030805;28;20473;-84
2022/03/21 10:00:54;;;;;;;15.73;13.57;;;16.40;52.50;;;;;;5033614;28;20521;-85
2022/03/21 10:03:33;;;;;;;15.97;14.27;;;17.10;50.10;;;;;;5035728;28;20521;-86
2022/03/21 10:06:39;;;;;;;14.90;13.40;;;17.90;49.60;;;;;;5035097;28;20456;-85
2022/03/21 10:09:24;;;;;;;17.93;15.93;;;18.90;47.80;;;;;;5052393;28;20466;-85
2022/03/21 10:12:11;;;;;;;15.80;14.20;;;19.70;45.70;;;;;;5035120;28;20460;-85
2022/03/21 10:14:53;;;;;;;19.00;15.57;;;19.60;46.40;;;;;;5019807;28;20473;-84
2022/03/21 10:17:34;;;;;;;20.33;15.63;;;19.80;45.70;;;;;;5035890;28;20466;-86
2022/03/21 10:20:35;;;;;;;16.70;14.47;;;20.30;44.50;;;;;;5034967;28;21220;-84
2022/03/21 10:23:18;;;;;;;15.43;13.27;;;20.90;43.70;;;;;;5034009;28;20428;-88
2022/03/21 10:25:47;;;;;;;17.00;15.00;;;20.80;43.00;;;;;;5033934;28;20509;-87
2022/03/21 10:28:36;;;;;;;18.10;15.63;;;20.60;43.60;;;;;;5036635;28;20438;-85
2022/03/21 10:31:07;;;;;;;18.33;15.17;;;20.60;43.80;;;;;;5035274;28;20466;-85
2022/03/21 10:34:01;;;;;;;16.23;14.63;;;20.00;44.60;;;;;;5048162;28;20458;-85
2022/03/21 10:36:37;;;;;;;16.93;15.23;;;19.70;44.50;;;;;;5037073;28;20453;-84
2022/03/21 10:39:24;;;;;;;19.17;15.73;;;19.70;45.10;;;;;;5033068;28;20463;-87
2022/03/21 10:42:14;;;;;;;17.77;14.50;;;19.40;46.00;;;;;;5036867;28;20506;-89
2022/03/21 10:45:04;;;;;;;16.07;14.37;;;19.30;46.20;;;;;;5034007;28;20512;-85
2022/03/21 10:47:47;;;;;;;16.83;15.10;;;19.40;46.50;;;;;;5027827;28;20446;-85
2022/03/21 10:50:51;;;;;;;15.33;13.60;;;19.90;45.90;;;;;;5021386;28;21519;-83
2022/03/21 10:53:25;;;;;;;17.37;14.57;;;20.20;45.50;;;;;;5036353;28;20452;-85
2022/03/21 10:56:11;;;;;;;16.93;15.23;;;20.80;45.00;;;;;;5018856;28;20469;-85
2022/03/21 10:58:58;;;;;;;17.53;15.77;;;20.50;44.80;;;;;;5013279;28;20558;-84
2022/03/21 11:01:41;;;;;;;20.43;14.17;;;20.60;45.20;;;;;;5012638;28;20851;-83
2022/03/21 11:04:29;;;;;;;16.87;14.90;;;20.30;44.80;;;;;;5006449;28;20476;-86
2022/03/21 11:07:28;;;;;;;17.90;15.73;;;20.70;44.60;;;;;;5014170;28;21058;-83
2022/03/21 11:10:19;;;;;;;16.43;14.60;;;20.30;44.70;;;;;;5011840;28;20454;-83
2022/03/21 11:13:13;;;;;;;15.87;14.27;;;21.10;44.40;;;;;;5011834;28;20680;-84
2022/03/21 11:19:32;;;;;;;14.70;13.23;;;20.90;45.20;;;;;;4992867;28;20963;-86
2022/03/21 11:30:13;;;;;;;15.30;13.27;;;20.30;46.10;;;;;;4998660;28;20468;-87
2022/03/21 11:33:51;;;;;;;14.40;12.70;;;20.60;45.40;;;;;;4999700;28;20463;-87
2022/03/21 11:37:11;;;;;;;18.80;14.77;;;21.30;45.80;;;;;;5025126;28;20529;-85
2022/03/21 11:40:48;;;;;;;15.03;13.60;;;21.90;44.80;;;;;;5018891;28;20454;-87
2022/03/21 11:44:14;;;;;;;16.97;12.63;;;21.60;45.00;;;;;;5023678;28;20553;-86
2022/03/21 11:59:03;;;;;;;15.30;13.30;;;21.80;45.40;;;;;;4934482;29;20485;-83
2022/03/21 12:01:35;;;;;;;14.00;12.67;;;22.60;44.70;;;;;;4943757;28;20441;-85
2022/03/21 12:04:24;;;;;;;14.80;12.30;;;22.80;43.90;;;;;;5028229;28;20479;-83
2022/03/21 12:06:58;;;;;;;12.40;11.10;;;22.20;45.00;;;;;;5002539;28;20509;-83
2022/03/21 12:10:29;;;;;;;12.67;10.80;;;22.60;44.80;;;;;;5006776;28;20449;-83
2022/03/21 12:13:08;;;;;;;11.37;10.27;;;22.60;45.00;;;;;;4934135;28;20480;-83
2022/03/21 12:16:07;;;;;;;;;;;;;;;;;;;;;
2022/03/21 12:19:35;;;;;;;11.03;9.30;;;22.40;45.90;;;;;;4998000;28;20528;-86
2022/03/21 12:26:08;;;;;;;8.70;7.90;;;23.70;44.50;;;;;;4997299;28;20487;-85
2022/03/21 12:32:28;;;;;;;11.93;7.00;;;23.20;45.30;;;;;;4995646;28;20463;-86
2022/03/21 12:38:14;;;;;;;10.40;8.67;;;23.00;45.30;;;;;;5066787;22;20926;-83
2022/03/21 12:41:00;;;;;;;10.30;7.93;;;21.80;46.60;;;;;;5010352;28;20450;-85
2022/03/21 12:47:03;;;;;;;7.53;6.80;;;22.80;45.90;;;;;;5006299;28;20487;-83
2022/03/21 12:49:57;;;;;;;11.67;7.87;;;22.80;46.40;;;;;;5002380;28;20463;-83
2022/03/21 12:52:34;;;;;;;9.33;8.43;;;22.10;46.80;;;;;;4992752;28;20466;-85
2022/03/21 12:55:16;;;;;;;9.00;8.10;;;22.50;47.30;;;;;;5002149;28;20479;-84
2022/03/21 12:57:58;;;;;;;9.70;8.07;;;22.30;46.90;;;;;;4988099;28;20479;-85
2022/03/21 13:00:34;;;;;;;8.70;7.90;;;23.00;45.90;;;;;;4987701;28;20516;-84
2022/03/21 13:03:04;;;;;;;9.60;7.93;;;23.10;45.30;;;;;;4985282;28;20458;-84
2022/03/21 13:12:09;;;;;;;9.33;8.47;;;22.60;45.40;;;;;;4981910;28;21046;-84
2022/03/21 13:15:02;;;;;;;10.10;9.10;;;22.50;45.90;;;;;;4979959;28;20486;-83
2022/03/21 13:18:03;;;;;;;10.70;9.10;;;23.10;45.20;;;;;;4985747;28;20475;-84
2022/03/21 13:20:47;;;;;;;12.13;8.77;;;22.90;45.10;;;;;;4985502;28;20467;-84
2022/03/21 13:23:19;;;;;;;8.70;7.80;;;22.70;45.20;;;;;;4985237;28;20479;-85
2022/03/21 13:25:48;;;;;;;9.93;8.70;;;22.40;45.50;;;;;;4986712;28;20519;-83
2022/03/21 13:28:21;;;;;;;9.10;8.17;;;22.50;45.60;;;;;;4989736;28;20473;-82
2022/03/21 13:31:02;;;;;;;10.20;9.10;;;22.40;45.40;;;;;;4985278;28;21060;-81
2022/03/21 13:33:31;;;;;;;11.67;9.50;;;21.90;46.20;;;;;;4985822;28;20495;-82
2022/03/21 13:36:03;;;;;;;9.83;8.50;;;22.20;46.50;;;;;;4984312;28;20460;-83
2022/03/21 13:38:32;;;;;;;10.40;9.30;;;21.90;46.60;;;;;;4983233;28;20598;-82
2022/03/21 13:41:02;;;;;;;11.17;9.50;;;22.30;46.00;;;;;;4983231;28;20463;-82
2022/03/21 13:43:32;;;;;;;10.27;8.90;;;22.50;45.50;;;;;;4985916;28;20469;-81
2022/03/21 13:46:00;;;;;;;9.40;8.50;;;22.50;45.60;;;;;;4982848;28;21883;-81
2022/03/21 13:48:42;;;;;;;10.77;9.47;;;22.90;45.30;;;;;;4980634;28;20843;-82
2022/03/21 13:51:17;;;;;;;9.80;8.80;;;22.90;45.20;;;;;;4980961;28;20556;-82
2022/03/21 13:53:44;;;;;;;10.73;9.63;;;23.00;45.20;;;;;;4983734;28;20589;-81
2022/03/21 13:56:14;;;;;;;13.90;9.53;;;23.30;45.00;;;;;;4983481;28;20936;-84
2022/03/21 13:58:42;;;;;;;9.93;8.00;;;23.40;44.80;;;;;;4984979;28;20487;-83
2022/03/21 14:01:21;;;;;;;9.33;8.43;;;23.30;44.80;;;;;;4985417;28;20460;-82
2022/03/21 14:03:51;;;;;;;10.70;8.63;;;23.40;45.00;;;;;;4985929;28;21361;-83
2022/03/21 14:06:18;;;;;;;11.10;8.23;;;23.30;44.60;;;;;;5006507;28;20451;-79
2022/03/21 14:09:02;;;;;;;8.80;7.90;;;23.10;44.90;;;;;;4992737;28;20455;-81
2022/03/21 14:11:30;;;;;;;10.03;8.70;;;22.60;45.70;;;;;;4993572;28;20483;-81
2022/03/21 14:14:00;;;;;;;9.73;8.73;;;22.90;45.40;;;;;;4994851;28;20482;-81
2022/03/21 14:16:28;;;;;;;9.10;7.47;;;22.80;45.30;;;;;;4987542;28;20539;-81
2022/03/21 14:18:58;;;;;;;9.80;7.77;;;22.90;45.50;;;;;;4989032;28;20491;-80
2022/03/21 14:21:27;;;;;;;9.50;8.60;;;23.00;45.30;;;;;;4985038;28;20478;-82
2022/03/21 14:23:55;;;;;;;9.70;7.60;;;23.10;44.90;;;;;;4984987;28;20485;-83
2022/03/21 14:26:34;;;;;;;9.77;8.77;;;22.80;45.10;;;;;;5000846;28;20491;-83
2022/03/21 14:29:03;;;;;;;8.67;7.77;;;22.70;45.30;;;;;;4990612;28;20460;-82
2022/03/21 14:31:31;;;;;;;8.87;7.77;;;22.50;45.70;;;;;;4989777;28;20491;-83
2022/03/21 14:33:58;;;;;;;8.80;7.90;;;22.20;46.20;;;;;;4984298;28;20486;-82
2022/03/21 14:36:25;;;;;;;8.67;7.17;;;22.40;46.50;;;;;;4983645;28;20499;-83